^^
Station Historical Data
Daily Summary for January 23, 2017 Units:  Metric    English   Both
« Previous Day
Next Day »
Daily Weekly Monthly Yearly Custom
  High: Low: Average:
Temperature: 36.3 °C 22.1 °C 28.6 °C
Dew Point: 19.5 °C 9.5 °C 14.9 °C
Humidity: 78% 26% 46%
Wind Speed: 33.8km/h 0km/h 8.5km/h
Wind Gust: 41.8km/h - -
Wind- - SSW
Pressure: 1010.7 hPa 1002.9 hPa -
Precipitation: 35.56 mm    
Historical Graphs
 
 
Tabular Data for January 23, 2017
Time Temperature Dew Point Pressure Wind Wind Speed Wind Gust Humidity Rainfall Rate (Hourly) solar Conditions
00:53 26.2 °C 9.5 °C 1010.4 hPa Calm     35% 0 mm 0.0 W/m2
01:09 26.8 °C 10.5 °C 1010.7 hPa Calm     36% 0 mm 0.0 W/m2
01:54 25.9 °C 13.7 °C 1010.4 hPa ENE 11.1 km/h 14.5 km/h 47% 0 mm 0.0 W/m2
02:01 26 °C 13.5 °C 1010.4 hPa ENE 3.2 km/h 14.5 km/h 46% 0 mm 0.0 W/m2
02:24 26.1 °C 13.6 °C 1010 hPa ENE 11.1 km/h 12.9 km/h 46% 0 mm 0.0 W/m2
03:12 25.9 °C 14.4 °C 1009 hPa Calm   9.7 km/h 49% 0 mm 0.0 W/m2
03:21 25.8 °C 14.9 °C 1009 hPa Calm   3.2 km/h 51% 0 mm 0.0 W/m2
03:34 25.6 °C 15.3 °C 1008.7 hPa Calm     53% 0 mm 0.0 W/m2
03:51 25.6 °C 15 °C 1008.7 hPa Calm     52% 0 mm 0.0 W/m2
04:06 25.5 °C 14.9 °C 1008.4 hPa Calm     52% 0 mm 0.0 W/m2
04:22 25.4 °C 14.8 °C 1008.4 hPa Calm     52% 0 mm 0.0 W/m2
04:32 25.3 °C 14.4 °C 1008.4 hPa Calm     51% 0 mm 0.0 W/m2
04:49 25.2 °C 14.3 °C 1008.4 hPa ENE 3.2 km/h 6.4 km/h 51% 0 mm 0.0 W/m2
04:58 25.2 °C 14.3 °C 1008.4 hPa Calm   1.6 km/h 51% 0 mm 0.0 W/m2
05:14 25.2 °C 14.3 °C 1008 hPa ENE 1.4 km/h 4.8 km/h 51% 0 mm 0.0 W/m2
05:24 25.4 °C 13.9 °C 1008 hPa Calm   8 km/h 49% 0 mm 0.0 W/m2
05:38 25.4 °C 13.6 °C 1008 hPa Calm     48% 0 mm 0.0 W/m2
05:44 25.7 °C 12.9 °C 1008.4 hPa Calm   9.7 km/h 45% 0 mm 0.0 W/m2
05:55 26 °C 13.1 °C 1008.4 hPa Calm   8 km/h 45% 0 mm 0.0 W/m2
06:11 25.8 °C 14.6 °C 1008.7 hPa Calm   9.7 km/h 50% 0 mm 0.0 W/m2
06:26 25.5 °C 14.9 °C 1008.7 hPa Calm   14.5 km/h 52% 0 mm 9.0 W/m2
13:45 34.5 °C 14.4 °C 1006 hPa NNW 13 km/h 22.5 km/h 30% 0 mm 942.0 W/m2
14:00 35 °C 14.3 °C 1006 hPa NW 11.1 km/h 29 km/h 29% 0 mm 921.0 W/m2
14:15 35 °C 14.3 °C 1005.6 hPa North 11.1 km/h 19.3 km/h 29% 0 mm 914.0 W/m2
14:35 35.6 °C 14.3 °C 1005.3 hPa NW 22.7 km/h 22.7 km/h 28% 0 mm 912.0 W/m2
14:40 35.6 °C 14.3 °C 1005 hPa NE 7.9 km/h 17.7 km/h 28% 0 mm 939.0 W/m2
14:49 35.4 °C 14.1 °C 1004.6 hPa NNW 28.8 km/h 30.6 km/h 28% 0 mm 909.0 W/m2
14:55 35.8 °C 13.3 °C 1004.6 hPa NNW 9.7 km/h 29 km/h 26% 0 mm 939.0 W/m2
15:05 36 °C 14.6 °C 1004.6 hPa NW 3.2 km/h 3.2 km/h 28% 0 mm 949.0 W/m2
15:10 36.3 °C 14.3 °C 1004.3 hPa North 24.1 km/h 33.8 km/h 27% 0 mm 960.0 W/m2
15:19 36.3 °C 14.3 °C 1004.3 hPa NNW 1.4 km/h 1.6 km/h 27% 0 mm 279.0 W/m2
15:21 36.1 °C 14.1 °C 1004.3 hPa NNW 14.3 km/h 25.7 km/h 27% 0 mm 717.0 W/m2
16:06 35.7 °C 13.8 °C 1003.3 hPa North 6.4 km/h 9.7 km/h 27% 0 mm 338.0 W/m2
16:11 35.7 °C 13.8 °C 1003.3 hPa Calm   8 km/h 27% 0 mm 204.0 W/m2
16:21 35.5 °C 14.2 °C 1002.9 hPa North 1.4 km/h 14.5 km/h 28% 0 mm 156.0 W/m2
16:29 35.7 °C 13.8 °C 1002.9 hPa North 19.5 km/h 22.5 km/h 27% 0 mm 686.0 W/m2
16:31 35.7 °C 13.8 °C 1002.9 hPa Calm   1.6 km/h 27% 0 mm 705.0 W/m2
16:48 36.2 °C 13.6 °C 1002.9 hPa NW 13 km/h 14.5 km/h 26% 0 mm 155.0 W/m2
17:01 34.2 °C 19.5 °C 1003.3 hPa WNW 33.8 km/h 41.8 km/h 42% 0.51 mm 60.0 W/m2
17:09 30.2 °C 18 °C 1003.3 hPa WNW 6.4 km/h 9.7 km/h 48% 1.52 mm 53.0 W/m2
18:39 22.1 °C 17.7 °C 1006.3 hPa WNW 13 km/h 24.1 km/h 76% 28.7 mm 0.0 W/m2
18:49 22.5 °C 17.4 °C 1006 hPa WNW 22.7 km/h 24.1 km/h 73% 30.48 mm 0.0 W/m2
19:06 23.6 °C 16.4 °C 1005.6 hPa West 9.7 km/h 16.1 km/h 64% 30.73 mm 0.0 W/m2
19:12 24 °C 16 °C 1005.6 hPa West 11.1 km/h 20.9 km/h 61% 25.65 mm 0.0 W/m2
19:18 23.9 °C 15.9 °C 1005.6 hPa WSW 7.9 km/h 12.9 km/h 61% 10.41 mm 0.0 W/m2
19:40 23.9 °C 17.2 °C 1005.6 hPa South 11.1 km/h 14.5 km/h 66% 4.06 mm 5.0 W/m2
19:48 23.6 °C 19.5 °C 1005.6 hPa SSW 14.3 km/h 14.5 km/h 78% 2.29 mm 0.0 W/m2
20:10 24.1 °C 18.7 °C 1005.6 hPa ESE 17.7 km/h 19.3 km/h 72% 2.29 mm 0.0 W/m2
20:18 24.3 °C 16.6 °C 1005.6 hPa ENE 13 km/h 29 km/h 62% 2.03 mm 0.0 W/m2
20:40 24.8 °C 16.8 °C 1005.6 hPa East 22.7 km/h 25.7 km/h 61% 1.27 mm 0.0 W/m2
20:49 24.6 °C 16.3 °C 1006 hPa ESE 27.4 km/h 29 km/h 60% 0.51 mm 0.0 W/m2
21:10 24.2 °C 17.4 °C 1006.3 hPa East 19.5 km/h 30.6 km/h 66% 0 mm 0.0 W/m2
21:14 24.2 °C 17.4 °C 1006.7 hPa ESE 16.3 km/h 25.7 km/h 66% 0 mm 0.0 W/m2
21:26 24.3 °C 17.8 °C 1007 hPa Calm     67% 0 mm 0.0 W/m2
Canyon Roadhouse, Fishriver Canyon, Namibia
Compliments of Weather Underground - 1.75 mb